Impacts METAR Board INFO
IDs:

KCLE - Cleveland/Hopkins In, OH, US

Updated at: 0230 UTC 17 Dec 2017
Potential Impact None Slight Moderate High
Time16/14Z 16/15Z 16/16Z 16/17Z 16/18Z 16/19Z 16/20Z 16/21Z 16/22Z 16/23Z 17/00Z 17/01Z 17/02Z
VIS10 10 10 9 10 10 10 10 10 10 10 6 5
CIG60 90 80 49 95 95 95 100 -- -- -- -- --
CoverOVCOVCOVCOVCOVCOVCBKNBKNFEWCLRCLRCLRCLR
FltCatVFRVFRVFRVFRVFRVFRVFRVFRVFRVFRVFRVFRMVFR
WX-------SN--------------BRBR
WDir2202202302402402502402302800305060
WSpd10 8 11 14 11 12 10 8 4 0 5 3 3
WGst-- -- -- -- -- -- -- -- -- -- -- -- --
Raw hourly METARs
KCLE 161351Z 22010KT 10SM BKN060 OVC080 02/M04 A2999 RMK AO2 SLP165 T00171039 $
KCLE 161451Z 22008KT 10SM FEW060 OVC090 02/M03 A3000 RMK AO2 SLP168 T00221033 53006 $
KCLE 161551Z 23011KT 10SM SCT065 OVC080 03/M03 A3002 RMK AO2 SLP174 T00281033 $
KCLE 161651Z 24014KT 9SM -SN BKN049 OVC070 03/M03 A3002 RMK AO2 SNB46 SLP172 P0000 T00331028 $
KCLE 161751Z 24011KT 10SM OVC095 04/M03 A3000 RMK AO2 SNE18 SLP168 4/003 933004 P0000 60000 T00391028 10039 20011 50001 $
KCLE 161851Z 25012KT 10SM OVC095 04/M02 A3000 RMK AO2 SLP168 T00391022 $
KCLE 161951Z 24010KT 10SM BKN095 BKN250 04/M02 A3001 RMK AO2 SLP169 T00441022 $
KCLE 162051Z 23008KT 10SM FEW035 BKN100 BKN250 04/M02 A3003 RMK AO2 SLP176 T00441017 53009 $
KCLE 162151Z 28004KT 10SM FEW035 04/M02 A3006 RMK AO2 SLP186 T00391022 $
KCLE 162251Z 00000KT 10SM CLR 03/M02 A3010 RMK AO2 SLP199 T00281022 $
KCLE 162351Z 03005KT 10SM CLR 02/M02 A3011 RMK AO2 SLP204 4/003 T00171017 10050 20011 51026 $
KCLE 170051Z 05003KT 6SM BR CLR 00/M01 A3013 RMK AO2 SLP210 T00001011 $
KCLE 170151Z 06003KT 5SM BR CLR M01/M02 A3013 RMK AO2 SLP211 T10061017 $